This is the latest recevied weather packets stored in our database for station/object K5NWZ. If no packets are shown the sender has not sent any weather packets the latest 10 day(s).
| Time | Temp. | Humidity | Pressure | Rain* | Wind** | Luminosity | Snow |
|---|---|---|---|---|---|---|---|
| 1787365562 | 26.67° C | 38% | 1031.1 hPa | 0 mm | - | 0 W/m² | - |
| 1787365258 | 26.67° C | 38% | 1031.2 hPa | 0 mm | - | 0 W/m² | - |
| 1787364953 | 27.22° C | 36% | 1031.1 hPa | 0 mm | - | 0 W/m² | - |
| 1787364649 | 27.78° C | 34% | 1031.2 hPa | 0 mm | - | 0 W/m² | - |
| 1787364344 | 28.33° C | 34% | 1031.3 hPa | 0 mm | - | 0 W/m² | - |
| 1787364040 | 27.78° C | 33% | 1031.5 hPa | 0 mm | - | 1 W/m² | - |
| 1787363739 | 28.33° C | 32% | 1031.2 hPa | 0 mm | - | 1 W/m² | - |
| 1787363434 | 28.33° C | 31% | 1031.2 hPa | 0 mm | - | 2 W/m² | - |
| 1787363134 | 28.89° C | 30% | 1030.9 hPa | 0 mm | - | 4 W/m² | - |
| 1787362829 | 28.89° C | 31% | 1030.8 hPa | 0 mm | - | 6 W/m² | - |
| 1787362524 | 29.44° C | 28% | 1031 hPa | 0 mm | - | 11 W/m² | - |
| 1787362221 | 30° C | 28% | 1030.8 hPa | 0 mm | - | 15 W/m² | - |
| 1787361919 | 30° C | 28% | 1030.8 hPa | 0 mm | - | 22 W/m² | - |
| 1787361615 | 30° C | 28% | 1030.8 hPa | 0 mm | - | 26 W/m² | - |
| 1787361314 | 30° C | 28% | 1030.5 hPa | 0 mm | - | 30 W/m² | - |
| 1787361009 | 30° C | 29% | 1030.6 hPa | 0 mm | - | 33 W/m² | - |
| 1787360704 | 30.56° C | 28% | 1030.5 hPa | 0 mm | - | 34 W/m² | - |
| 1787360404 | 31.11° C | 27% | 1030.9 hPa | 0 mm | - | 37 W/m² | - |
| 1787360098 | 31.11° C | 26% | 1030.9 hPa | 0 mm | - | 39 W/m² | - |
| 1787359794 | 31.11° C | 26% | 1031.1 hPa | 0 mm | - | 47 W/m² | - |
| 1787359491 | 31.67° C | 25% | 1030.8 hPa | 0 mm | - | 52 W/m² | - |
| 1787359190 | 32.22° C | 25% | 1031.1 hPa | 0 mm | - | 67 W/m² | - |
| 1787358886 | 31.11° C | 26% | 1030.9 hPa | 0 mm | - | 70 W/m² | - |
| 1787358579 | 31.11° C | 31% | 1031.2 hPa | 0 mm | - | 49 W/m² | - |
| 1787358274 | 31.67° C | 29% | 1031 hPa | 0 mm | - | 49 W/m² | - |
* Rain latest hour (hover to see other rain measurements)
** Current wind speed in m/s (hover to see current wind gust speed)